In Rescue
 
Open Full Screen Window  High Contrast Mode
Wind Gusting 00 knots
03
November 19, 2019 1:43 PM EST
Weather Information
Wind Direction
  320 °
Wind Speed
  03 kt (3 mph)
Wind Gust
  00 kt (0 mph)
Altimeter
29.78 in
Visibility
10 SM
Temperature
05° C
41° F
Dewpoint
03° C
37° F
Humidity
87%
Sky Condition
Overcast @ 5,000 ft
Broken @ 1,400 ft
Scattered @ 900 ft
MVFR

METAR KSJX 191843Z AUTO 32003KT 10SM SCT009 BKN014 OVC050 05/03 A2978 RMK AO2 T00500028

FAA Disclaimer: The data displayed is for advisory purposes only and is not to be used for flight planning or operations.